sensor_id;sensor_type;location;lat;lon;timestamp;temperature;humidity
62154;DHT22;48140;45.486;9.226;2023-07-13T01:05:58;22.10;99.90
62154;DHT22;48140;45.486;9.226;2023-07-13T01:08:23;22.20;99.90
62154;DHT22;48140;45.486;9.226;2023-07-13T01:10:53;22.20;99.90
62154;DHT22;48140;45.486;9.226;2023-07-13T01:13:19;22.10;99.90
62154;DHT22;48140;45.486;9.226;2023-07-13T01:15:46;22.10;99.90
62154;DHT22;48140;45.486;9.226;2023-07-13T01:18:13;22.10;99.90
62154;DHT22;48140;45.486;9.226;2023-07-13T01:20:39;22.10;99.90
62154;DHT22;48140;45.486;9.226;2023-07-13T01:23:06;22.20;99.90
62154;DHT22;48140;45.486;9.226;2023-07-13T01:25:32;22.20;99.90
62154;DHT22;48140;45.486;9.226;2023-07-13T01:27:58;22.20;99.90
62154;DHT22;48140;45.486;9.226;2023-07-13T01:30:24;22.20;99.90
62154;DHT22;48140;45.486;9.226;2023-07-13T01:32:49;22.30;99.90
62154;DHT22;48140;45.486;9.226;2023-07-13T01:35:15;22.30;99.90
62154;DHT22;48140;45.486;9.226;2023-07-13T01:37:42;22.30;99.90
62154;DHT22;48140;45.486;9.226;2023-07-13T01:40:10;22.30;99.90
62154;DHT22;48140;45.486;9.226;2023-07-13T01:42:36;22.20;99.90
62154;DHT22;48140;45.486;9.226;2023-07-13T01:45:02;22.10;99.90
62154;DHT22;48140;45.486;9.226;2023-07-13T01:47:28;22.10;99.90
62154;DHT22;48140;45.486;9.226;2023-07-13T01:49:56;22.10;99.90
62154;DHT22;48140;45.486;9.226;2023-07-13T01:52:22;22.10;99.90
62154;DHT22;48140;45.486;9.226;2023-07-13T01:54:47;22.10;99.90
62154;DHT22;48140;45.486;9.226;2023-07-13T01:57:13;22.00;99.90
62154;DHT22;48140;45.486;9.226;2023-07-13T01:59:38;22.10;99.90
62154;DHT22;48140;45.486;9.226;2023-07-13T02:02:04;22.00;99.90
62154;DHT22;48140;45.486;9.226;2023-07-13T02:04:29;22.10;99.90
62154;DHT22;48140;45.486;9.226;2023-07-13T02:06:55;22.10;99.90
62154;DHT22;48140;45.486;9.226;2023-07-13T02:09:21;22.10;99.90
62154;DHT22;48140;45.486;9.226;2023-07-13T02:11:46;22.00;99.90
62154;DHT22;48140;45.486;9.226;2023-07-13T02:14:12;22.10;99.90
62154;DHT22;48140;45.486;9.226;2023-07-13T02:16:37;22.00;99.90
62154;DHT22;48140;45.486;9.226;2023-07-13T02:19:03;22.10;99.90
62154;DHT22;48140;45.486;9.226;2023-07-13T02:21:28;22.10;99.90
62154;DHT22;48140;45.486;9.226;2023-07-13T02:23:54;22.20;99.90
62154;DHT22;48140;45.486;9.226;2023-07-13T02:26:20;22.20;99.90
62154;DHT22;48140;45.486;9.226;2023-07-13T02:28:45;22.20;99.90
62154;DHT22;48140;45.486;9.226;2023-07-13T02:31:12;22.10;99.90
62154;DHT22;48140;45.486;9.226;2023-07-13T02:33:38;22.20;99.90
62154;DHT22;48140;45.486;9.226;2023-07-13T02:36:03;22.20;99.90
62154;DHT22;48140;45.486;9.226;2023-07-13T02:38:31;22.20;99.90
62154;DHT22;48140;45.486;9.226;2023-07-13T02:40:59;22.30;99.90
62154;DHT22;48140;45.486;9.226;2023-07-13T02:43:24;22.30;99.90
62154;DHT22;48140;45.486;9.226;2023-07-13T02:45:50;22.30;99.90
62154;DHT22;48140;45.486;9.226;2023-07-13T02:48:15;22.20;99.90
62154;DHT22;48140;45.486;9.226;2023-07-13T02:50:41;22.20;99.90
62154;DHT22;48140;45.486;9.226;2023-07-13T02:53:06;22.20;99.90
62154;DHT22;48140;45.486;9.226;2023-07-13T02:55:32;22.10;99.90
62154;DHT22;48140;45.486;9.226;2023-07-13T02:57:57;22.00;99.90
62154;DHT22;48140;45.486;9.226;2023-07-13T03:00:23;22.10;99.90
62154;DHT22;48140;45.486;9.226;2023-07-13T03:02:49;22.10;99.90
62154;DHT22;48140;45.486;9.226;2023-07-13T03:05:14;22.20;99.90
62154;DHT22;48140;45.486;9.226;2023-07-13T03:07:41;22.20;99.90
62154;DHT22;48140;45.486;9.226;2023-07-13T03:10:07;22.20;99.90
62154;DHT22;48140;45.486;9.226;2023-07-13T03:12:33;22.20;99.90
62154;DHT22;48140;45.486;9.226;2023-07-13T03:14:59;22.20;99.90
62154;DHT22;48140;45.486;9.226;2023-07-13T03:17:24;22.10;99.90
62154;DHT22;48140;45.486;9.226;2023-07-13T03:19:50;22.20;99.90
62154;DHT22;48140;45.486;9.226;2023-07-13T03:22:17;22.20;99.90
62154;DHT22;48140;45.486;9.226;2023-07-13T03:24:42;22.20;99.90
62154;DHT22;48140;45.486;9.226;2023-07-13T03:27:08;22.30;99.90
62154;DHT22;48140;45.486;9.226;2023-07-13T03:29:33;22.30;99.90
62154;DHT22;48140;45.486;9.226;2023-07-13T03:31:59;22.40;99.90
62154;DHT22;48140;45.486;9.226;2023-07-13T03:34:24;22.50;99.90
62154;DHT22;48140;45.486;9.226;2023-07-13T03:36:50;22.50;99.90
62154;DHT22;48140;45.486;9.226;2023-07-13T03:39:16;22.60;99.90
62154;DHT22;48140;45.486;9.226;2023-07-13T03:41:41;22.70;99.90
62154;DHT22;48140;45.486;9.226;2023-07-13T03:44:06;22.70;99.90
62154;DHT22;48140;45.486;9.226;2023-07-13T03:46:32;22.60;99.90
62154;DHT22;48140;45.486;9.226;2023-07-13T03:48:58;22.60;99.90
62154;DHT22;48140;45.486;9.226;2023-07-13T03:51:24;22.60;99.90
62154;DHT22;48140;45.486;9.226;2023-07-13T03:53:50;22.60;99.90
62154;DHT22;48140;45.486;9.226;2023-07-13T03:56:16;22.60;99.90
62154;DHT22;48140;45.486;9.226;2023-07-13T03:58:42;22.60;99.90
62154;DHT22;48140;45.486;9.226;2023-07-13T04:01:09;22.70;99.90
62154;DHT22;48140;45.486;9.226;2023-07-13T04:03:35;22.60;99.90
62154;DHT22;48140;45.486;9.226;2023-07-13T04:06:05;22.70;99.90
62154;DHT22;48140;45.486;9.226;2023-07-13T04:08:31;22.70;99.90
62154;DHT22;48140;45.486;9.226;2023-07-13T04:10:57;22.80;99.90
62154;DHT22;48140;45.486;9.226;2023-07-13T04:13:23;22.70;99.90
62154;DHT22;48140;45.486;9.226;2023-07-13T04:15:49;22.70;99.90
62154;DHT22;48140;45.486;9.226;2023-07-13T04:18:14;22.80;99.90
62154;DHT22;48140;45.486;9.226;2023-07-13T04:20:40;22.80;99.90
62154;DHT22;48140;45.486;9.226;2023-07-13T04:23:05;22.80;99.90
62154;DHT22;48140;45.486;9.226;2023-07-13T04:25:30;22.80;99.90
62154;DHT22;48140;45.486;9.226;2023-07-13T04:27:56;22.70;99.90
62154;DHT22;48140;45.486;9.226;2023-07-13T04:30:22;22.70;99.90
62154;DHT22;48140;45.486;9.226;2023-07-13T04:32:47;22.70;99.90
62154;DHT22;48140;45.486;9.226;2023-07-13T04:35:13;22.80;99.90
62154;DHT22;48140;45.486;9.226;2023-07-13T04:37:39;22.80;99.90
62154;DHT22;48140;45.486;9.226;2023-07-13T04:40:05;22.90;99.90
62154;DHT22;48140;45.486;9.226;2023-07-13T04:42:31;22.90;99.90
62154;DHT22;48140;45.486;9.226;2023-07-13T04:44:57;23.00;99.90
62154;DHT22;48140;45.486;9.226;2023-07-13T04:47:22;23.00;99.90
62154;DHT22;48140;45.486;9.226;2023-07-13T04:49:48;23.00;99.90
62154;DHT22;48140;45.486;9.226;2023-07-13T04:52:13;23.00;99.90
62154;DHT22;48140;45.486;9.226;2023-07-13T04:54:39;23.10;99.90
62154;DHT22;48140;45.486;9.226;2023-07-13T04:57:05;23.30;99.90
62154;DHT22;48140;45.486;9.226;2023-07-13T04:59:32;23.50;99.90
62154;DHT22;48140;45.486;9.226;2023-07-13T05:01:57;23.50;99.90
62154;DHT22;48140;45.486;9.226;2023-07-13T05:04:23;23.60;99.90
62154;DHT22;48140;45.486;9.226;2023-07-13T05:06:49;23.60;99.90
62154;DHT22;48140;45.486;9.226;2023-07-13T05:09:14;23.80;99.90
62154;DHT22;48140;45.486;9.226;2023-07-13T05:11:40;23.70;99.90
62154;DHT22;48140;45.486;9.226;2023-07-13T05:14:05;23.90;99.90
62154;DHT22;48140;45.486;9.226;2023-07-13T05:16:31;23.90;99.90
62154;DHT22;48140;45.486;9.226;2023-07-13T05:18:57;23.90;99.90
62154;DHT22;48140;45.486;9.226;2023-07-13T05:21:23;23.90;99.90
62154;DHT22;48140;45.486;9.226;2023-07-13T05:23:48;24.10;99.60
62154;DHT22;48140;45.486;9.226;2023-07-13T05:26:14;24.10;99.90
62154;DHT22;48140;45.486;9.226;2023-07-13T05:28:39;24.20;99.90
62154;DHT22;48140;45.486;9.226;2023-07-13T05:31:06;24.20;99.90
62154;DHT22;48140;45.486;9.226;2023-07-13T05:33:39;24.40;99.50
62154;DHT22;48140;45.486;9.226;2023-07-13T05:36:04;24.50;99.40
62154;DHT22;48140;45.486;9.226;2023-07-13T05:38:30;24.60;99.60
62154;DHT22;48140;45.486;9.226;2023-07-13T05:40:56;24.70;99.30
62154;DHT22;48140;45.486;9.226;2023-07-13T05:43:22;24.80;98.40
62154;DHT22;48140;45.486;9.226;2023-07-13T05:45:47;25.00;96.90
62154;DHT22;48140;45.486;9.226;2023-07-13T05:48:14;25.10;95.40
62154;DHT22;48140;45.486;9.226;2023-07-13T05:50:39;25.20;94.50
62154;DHT22;48140;45.486;9.226;2023-07-13T05:53:08;25.20;93.90
62154;DHT22;48140;45.486;9.226;2023-07-13T05:55:34;25.20;94.60
62154;DHT22;48140;45.486;9.226;2023-07-13T05:58:00;25.30;94.50
62154;DHT22;48140;45.486;9.226;2023-07-13T06:00:28;25.40;93.90
62154;DHT22;48140;45.486;9.226;2023-07-13T06:02:55;25.40;94.20
62154;DHT22;48140;45.486;9.226;2023-07-13T06:05:21;25.30;94.50
62154;DHT22;48140;45.486;9.226;2023-07-13T06:07:46;25.30;94.70
62154;DHT22;48140;45.486;9.226;2023-07-13T06:10:12;25.30;94.90
62154;DHT22;48140;45.486;9.226;2023-07-13T06:12:37;25.30;94.60
62154;DHT22;48140;45.486;9.226;2023-07-13T06:15:05;25.30;94.10
62154;DHT22;48140;45.486;9.226;2023-07-13T06:17:31;25.50;93.90
62154;DHT22;48140;45.486;9.226;2023-07-13T06:19:56;25.60;93.50
62154;DHT22;48140;45.486;9.226;2023-07-13T06:22:22;25.80;92.90
62154;DHT22;48140;45.486;9.226;2023-07-13T06:24:47;26.00;92.60
62154;DHT22;48140;45.486;9.226;2023-07-13T06:27:13;26.10;91.90
62154;DHT22;48140;45.486;9.226;2023-07-13T06:29:38;26.30;91.90
62154;DHT22;48140;45.486;9.226;2023-07-13T06:32:05;26.20;91.50
62154;DHT22;48140;45.486;9.226;2023-07-13T06:34:30;26.20;91.30
62154;DHT22;48140;45.486;9.226;2023-07-13T06:36:56;26.30;91.60
62154;DHT22;48140;45.486;9.226;2023-07-13T06:39:21;26.30;91.40
62154;DHT22;48140;45.486;9.226;2023-07-13T06:41:47;26.50;91.10
62154;DHT22;48140;45.486;9.226;2023-07-13T06:44:12;26.70;90.70
62154;DHT22;48140;45.486;9.226;2023-07-13T06:46:38;26.70;90.50
62154;DHT22;48140;45.486;9.226;2023-07-13T06:49:03;26.80;90.30
62154;DHT22;48140;45.486;9.226;2023-07-13T06:51:29;27.00;90.00
62154;DHT22;48140;45.486;9.226;2023-07-13T06:53:54;27.00;88.70
62154;DHT22;48140;45.486;9.226;2023-07-13T06:56:21;27.20;87.30
62154;DHT22;48140;45.486;9.226;2023-07-13T06:58:46;27.20;88.60
62154;DHT22;48140;45.486;9.226;2023-07-13T07:01:12;27.20;86.90
62154;DHT22;48140;45.486;9.226;2023-07-13T07:03:37;27.30;86.80
62154;DHT22;48140;45.486;9.226;2023-07-13T07:06:22;27.40;87.20
62154;DHT22;48140;45.486;9.226;2023-07-13T07:08:51;27.40;87.90
62154;DHT22;48140;45.486;9.226;2023-07-13T07:11:21;27.40;87.80
62154;DHT22;48140;45.486;9.226;2023-07-13T07:13:50;27.30;87.40
62154;DHT22;48140;45.486;9.226;2023-07-13T07:16:16;27.30;87.90
62154;DHT22;48140;45.486;9.226;2023-07-13T07:18:42;27.40;86.90
62154;DHT22;48140;45.486;9.226;2023-07-13T07:21:09;27.50;87.10
62154;DHT22;48140;45.486;9.226;2023-07-13T07:23:34;27.40;86.90
62154;DHT22;48140;45.486;9.226;2023-07-13T07:26:00;27.30;85.80
62154;DHT22;48140;45.486;9.226;2023-07-13T07:28:26;27.20;86.50
62154;DHT22;48140;45.486;9.226;2023-07-13T07:30:57;27.10;87.40
62154;DHT22;48140;45.486;9.226;2023-07-13T07:33:23;27.10;87.40
62154;DHT22;48140;45.486;9.226;2023-07-13T07:35:49;26.90;87.60
62154;DHT22;48140;45.486;9.226;2023-07-13T07:38:15;26.90;87.80
62154;DHT22;48140;45.486;9.226;2023-07-13T07:40:41;26.80;88.30
62154;DHT22;48140;45.486;9.226;2023-07-13T07:43:10;26.70;88.40
62154;DHT22;48140;45.486;9.226;2023-07-13T07:45:36;26.70;89.40
62154;DHT22;48140;45.486;9.226;2023-07-13T07:48:03;26.70;89.00
62154;DHT22;48140;45.486;9.226;2023-07-13T07:50:29;26.80;88.90
62154;DHT22;48140;45.486;9.226;2023-07-13T07:52:55;26.90;88.60
62154;DHT22;48140;45.486;9.226;2023-07-13T07:55:24;27.10;88.00
62154;DHT22;48140;45.486;9.226;2023-07-13T07:57:53;27.10;87.50
62154;DHT22;48140;45.486;9.226;2023-07-13T08:00:18;27.10;87.50
62154;DHT22;48140;45.486;9.226;2023-07-13T08:02:44;27.20;86.80
62154;DHT22;48140;45.486;9.226;2023-07-13T08:05:10;27.20;87.00
62154;DHT22;48140;45.486;9.226;2023-07-13T08:07:36;27.20;87.10
62154;DHT22;48140;45.486;9.226;2023-07-13T08:10:06;27.20;87.00
62154;DHT22;48140;45.486;9.226;2023-07-13T08:12:35;27.30;87.40
62154;DHT22;48140;45.486;9.226;2023-07-13T08:15:00;27.40;86.60
62154;DHT22;48140;45.486;9.226;2023-07-13T08:17:26;27.40;86.60
62154;DHT22;48140;45.486;9.226;2023-07-13T08:19:52;27.60;86.40
62154;DHT22;48140;45.486;9.226;2023-07-13T08:22:17;27.70;86.90
62154;DHT22;48140;45.486;9.226;2023-07-13T08:24:43;27.80;87.20
62154;DHT22;48140;45.486;9.226;2023-07-13T08:27:10;27.90;87.20
62154;DHT22;48140;45.486;9.226;2023-07-13T08:29:37;28.10;86.40
62154;DHT22;48140;45.486;9.226;2023-07-13T08:32:04;28.50;85.80
62154;DHT22;48140;45.486;9.226;2023-07-13T08:34:29;28.70;84.20
62154;DHT22;48140;45.486;9.226;2023-07-13T08:36:55;28.70;81.70
62154;DHT22;48140;45.486;9.226;2023-07-13T08:39:20;28.70;81.00
62154;DHT22;48140;45.486;9.226;2023-07-13T08:41:46;28.30;82.50
62154;DHT22;48140;45.486;9.226;2023-07-13T08:44:25;28.40;82.90
62154;DHT22;48140;45.486;9.226;2023-07-13T08:46:52;28.60;82.60
62154;DHT22;48140;45.486;9.226;2023-07-13T08:49:21;28.70;82.10
62154;DHT22;48140;45.486;9.226;2023-07-13T08:51:56;28.70;82.70
62154;DHT22;48140;45.486;9.226;2023-07-13T08:54:27;28.90;81.60
62154;DHT22;48140;45.486;9.226;2023-07-13T08:56:54;29.00;80.30
62154;DHT22;48140;45.486;9.226;2023-07-13T08:59:22;29.10;79.70
62154;DHT22;48140;45.486;9.226;2023-07-13T09:04:25;29.40;76.90
62154;DHT22;48140;45.486;9.226;2023-07-13T09:09:27;29.60;75.20
62154;DHT22;48140;45.486;9.226;2023-07-13T09:12:07;29.70;74.10
62154;DHT22;48140;45.486;9.226;2023-07-13T09:14:50;29.60;74.70
62154;DHT22;48140;45.486;9.226;2023-07-13T09:17:24;29.50;75.80
62154;DHT22;48140;45.486;9.226;2023-07-13T09:20:52;28.80;76.70
62154;DHT22;48140;45.486;9.226;2023-07-13T09:22:46;28.50;79.60
62154;DHT22;48140;45.486;9.226;2023-07-13T09:28:23;28.10;83.20
62154;DHT22;48140;45.486;9.226;2023-07-13T09:33:16;28.00;85.00
62154;DHT22;48140;45.486;9.226;2023-07-13T09:35:42;27.90;85.20
62154;DHT22;48140;45.486;9.226;2023-07-13T09:38:12;28.00;85.20
62154;DHT22;48140;45.486;9.226;2023-07-13T09:43:24;28.50;84.70
62154;DHT22;48140;45.486;9.226;2023-07-13T09:45:49;28.80;83.80
62154;DHT22;48140;45.486;9.226;2023-07-13T09:48:15;29.00;82.90
62154;DHT22;48140;45.486;9.226;2023-07-13T09:50:42;29.40;81.80
62154;DHT22;48140;45.486;9.226;2023-07-13T09:53:18;29.20;82.50
62154;DHT22;48140;45.486;9.226;2023-07-13T09:55:47;29.40;82.10
62154;DHT22;48140;45.486;9.226;2023-07-13T09:58:17;29.60;80.50
62154;DHT22;48140;45.486;9.226;2023-07-13T10:00:55;29.50;79.00
62154;DHT22;48140;45.486;9.226;2023-07-13T10:03:22;29.60;78.50
62154;DHT22;48140;45.486;9.226;2023-07-13T10:05:49;29.70;77.60
62154;DHT22;48140;45.486;9.226;2023-07-13T10:10:43;29.80;76.60
62154;DHT22;48140;45.486;9.226;2023-07-13T10:15:53;30.00;74.20
62154;DHT22;48140;45.486;9.226;2023-07-13T10:18:19;30.10;74.70
62154;DHT22;48140;45.486;9.226;2023-07-13T10:20:46;30.20;74.40
62154;DHT22;48140;45.486;9.226;2023-07-13T10:23:13;30.40;74.30
62154;DHT22;48140;45.486;9.226;2023-07-13T10:25:41;30.50;73.20
62154;DHT22;48140;45.486;9.226;2023-07-13T10:28:11;30.50;73.00
62154;DHT22;48140;45.486;9.226;2023-07-13T10:30:41;30.70;72.40
62154;DHT22;48140;45.486;9.226;2023-07-13T10:33:10;30.80;73.00
62154;DHT22;48140;45.486;9.226;2023-07-13T10:35:36;30.70;71.60
62154;DHT22;48140;45.486;9.226;2023-07-13T10:38:06;30.70;72.80
62154;DHT22;48140;45.486;9.226;2023-07-13T10:41:19;30.80;72.00
62154;DHT22;48140;45.486;9.226;2023-07-13T10:43:23;31.00;71.60
62154;DHT22;48140;45.486;9.226;2023-07-13T10:45:52;30.80;72.50
62154;DHT22;48140;45.486;9.226;2023-07-13T10:48:20;30.90;72.30
62154;DHT22;48140;45.486;9.226;2023-07-13T10:50:46;31.00;71.30
62154;DHT22;48140;45.486;9.226;2023-07-13T10:53:18;31.00;71.60
62154;DHT22;48140;45.486;9.226;2023-07-13T10:58:29;31.00;71.60
62154;DHT22;48140;45.486;9.226;2023-07-13T11:03:22;31.20;71.10
62154;DHT22;48140;45.486;9.226;2023-07-13T11:05:49;31.30;70.40
62154;DHT22;48140;45.486;9.226;2023-07-13T11:08:20;30.70;67.70
62154;DHT22;48140;45.486;9.226;2023-07-13T11:10:51;30.80;66.50
62154;DHT22;48140;45.486;9.226;2023-07-13T11:16:01;31.20;67.90
62154;DHT22;48140;45.486;9.226;2023-07-13T11:18:37;31.40;67.60
62154;DHT22;48140;45.486;9.226;2023-07-13T11:21:21;31.50;66.80
62154;DHT22;48140;45.486;9.226;2023-07-13T11:23:54;31.30;67.20
62154;DHT22;48140;45.486;9.226;2023-07-13T11:29:08;31.60;65.20
62154;DHT22;48140;45.486;9.226;2023-07-13T11:31:34;31.70;64.20
62154;DHT22;48140;45.486;9.226;2023-07-13T11:34:00;32.00;63.00
62154;DHT22;48140;45.486;9.226;2023-07-13T11:36:29;32.30;59.80
62154;DHT22;48140;45.486;9.226;2023-07-13T11:38:58;32.10;60.10
62154;DHT22;48140;45.486;9.226;2023-07-13T11:41:42;32.40;60.10
62154;DHT22;48140;45.486;9.226;2023-07-13T11:44:13;32.40;59.00
62154;DHT22;48140;45.486;9.226;2023-07-13T11:46:44;32.60;59.60
62154;DHT22;48140;45.486;9.226;2023-07-13T11:49:11;32.90;58.80
62154;DHT22;48140;45.486;9.226;2023-07-13T11:51:38;32.80;58.20
62154;DHT22;48140;45.486;9.226;2023-07-13T11:54:14;33.10;57.90
62154;DHT22;48140;45.486;9.226;2023-07-13T11:56:42;33.30;57.50
62154;DHT22;48140;45.486;9.226;2023-07-13T11:59:08;33.40;57.10
62154;DHT22;48140;45.486;9.226;2023-07-13T12:01:38;33.40;57.90
62154;DHT22;48140;45.486;9.226;2023-07-13T12:04:08;33.40;58.70
62154;DHT22;48140;45.486;9.226;2023-07-13T12:06:35;33.40;57.00
62154;DHT22;48140;45.486;9.226;2023-07-13T12:09:10;33.70;56.40
62154;DHT22;48140;45.486;9.226;2023-07-13T12:11:38;33.50;56.50
62154;DHT22;48140;45.486;9.226;2023-07-13T12:14:05;33.50;55.20
62154;DHT22;48140;45.486;9.226;2023-07-13T12:16:31;33.10;55.50
62154;DHT22;48140;45.486;9.226;2023-07-13T12:19:00;32.80;56.60
62154;DHT22;48140;45.486;9.226;2023-07-13T12:21:30;32.60;58.50
62154;DHT22;48140;45.486;9.226;2023-07-13T12:23:56;32.60;57.70
62154;DHT22;48140;45.486;9.226;2023-07-13T12:26:23;32.80;57.10
62154;DHT22;48140;45.486;9.226;2023-07-13T12:28:51;33.00;56.80
62154;DHT22;48140;45.486;9.226;2023-07-13T12:33:48;32.20;57.20
62154;DHT22;48140;45.486;9.226;2023-07-13T12:36:21;31.80;58.40
62154;DHT22;48140;45.486;9.226;2023-07-13T12:38:46;31.90;58.80
62154;DHT22;48140;45.486;9.226;2023-07-13T12:41:12;31.20;61.10
62154;DHT22;48140;45.486;9.226;2023-07-13T12:43:38;30.70;63.90
62154;DHT22;48140;45.486;9.226;2023-07-13T12:48:29;30.20;67.10
62154;DHT22;48140;45.486;9.226;2023-07-13T12:50:55;30.20;67.40
62154;DHT22;48140;45.486;9.226;2023-07-13T12:53:22;30.50;66.80
62154;DHT22;48140;45.486;9.226;2023-07-13T12:55:48;30.80;64.50
62154;DHT22;48140;45.486;9.226;2023-07-13T12:58:16;30.50;65.60
62154;DHT22;48140;45.486;9.226;2023-07-13T13:00:47;30.60;65.40
62154;DHT22;48140;45.486;9.226;2023-07-13T13:03:19;30.70;65.70
62154;DHT22;48140;45.486;9.226;2023-07-13T13:05:46;31.00;65.10
62154;DHT22;48140;45.486;9.226;2023-07-13T13:08:12;31.40;63.80
62154;DHT22;48140;45.486;9.226;2023-07-13T13:10:38;31.40;63.30
62154;DHT22;48140;45.486;9.226;2023-07-13T13:13:04;31.60;62.50
62154;DHT22;48140;45.486;9.226;2023-07-13T13:15:29;32.00;61.90
62154;DHT22;48140;45.486;9.226;2023-07-13T13:17:55;32.50;59.50
62154;DHT22;48140;45.486;9.226;2023-07-13T13:20:21;32.90;57.50
62154;DHT22;48140;45.486;9.226;2023-07-13T13:22:47;32.90;58.10
62154;DHT22;48140;45.486;9.226;2023-07-13T13:25:13;33.30;57.40
62154;DHT22;48140;45.486;9.226;2023-07-13T13:27:42;33.70;54.90
62154;DHT22;48140;45.486;9.226;2023-07-13T13:30:11;34.20;54.10
62154;DHT22;48140;45.486;9.226;2023-07-13T13:32:39;33.90;53.60
62154;DHT22;48140;45.486;9.226;2023-07-13T13:35:05;33.80;55.80
62154;DHT22;48140;45.486;9.226;2023-07-13T13:37:31;34.20;54.70
62154;DHT22;48140;45.486;9.226;2023-07-13T13:39:57;34.20;54.30
62154;DHT22;48140;45.486;9.226;2023-07-13T13:42:22;34.00;55.90
62154;DHT22;48140;45.486;9.226;2023-07-13T13:44:50;33.90;56.40
62154;DHT22;48140;45.486;9.226;2023-07-13T13:49:50;34.30;55.20
62154;DHT22;48140;45.486;9.226;2023-07-13T13:52:16;34.20;54.80
62154;DHT22;48140;45.486;9.226;2023-07-13T13:54:42;34.00;55.00
62154;DHT22;48140;45.486;9.226;2023-07-13T13:57:08;34.00;55.60
62154;DHT22;48140;45.486;9.226;2023-07-13T13:59:33;34.30;54.60
62154;DHT22;48140;45.486;9.226;2023-07-13T14:05:03;34.80;51.70
62154;DHT22;48140;45.486;9.226;2023-07-13T14:07:28;34.90;50.40
62154;DHT22;48140;45.486;9.226;2023-07-13T14:09:57;34.90;50.10
62154;DHT22;48140;45.486;9.226;2023-07-13T14:12:23;35.20;49.00
62154;DHT22;48140;45.486;9.226;2023-07-13T14:14:51;35.10;48.40
62154;DHT22;48140;45.486;9.226;2023-07-13T14:17:24;35.30;48.90
62154;DHT22;48140;45.486;9.226;2023-07-13T14:19:50;35.10;48.40
62154;DHT22;48140;45.486;9.226;2023-07-13T14:22:23;35.00;48.60
62154;DHT22;48140;45.486;9.226;2023-07-13T14:24:49;34.30;50.10
62154;DHT22;48140;45.486;9.226;2023-07-13T14:27:15;33.90;52.60
62154;DHT22;48140;45.486;9.226;2023-07-13T14:29:40;33.50;52.10
62154;DHT22;48140;45.486;9.226;2023-07-13T14:32:10;33.40;54.10
62154;DHT22;48140;45.486;9.226;2023-07-13T14:34:35;33.80;53.30
62154;DHT22;48140;45.486;9.226;2023-07-13T14:37:01;34.50;51.30
62154;DHT22;48140;45.486;9.226;2023-07-13T14:39:27;34.80;50.10
62154;DHT22;48140;45.486;9.226;2023-07-13T14:41:53;35.00;48.50
62154;DHT22;48140;45.486;9.226;2023-07-13T14:44:20;35.30;47.60
62154;DHT22;48140;45.486;9.226;2023-07-13T14:46:46;35.70;45.50
62154;DHT22;48140;45.486;9.226;2023-07-13T14:51:50;36.40;44.20
62154;DHT22;48140;45.486;9.226;2023-07-13T14:54:16;36.80;42.50
62154;DHT22;48140;45.486;9.226;2023-07-13T14:56:41;36.90;41.00
62154;DHT22;48140;45.486;9.226;2023-07-13T14:59:06;37.10;40.90
62154;DHT22;48140;45.486;9.226;2023-07-13T15:01:33;37.40;39.70
62154;DHT22;48140;45.486;9.226;2023-07-13T15:03:59;37.60;38.80
62154;DHT22;48140;45.486;9.226;2023-07-13T15:06:25;37.50;39.50
62154;DHT22;48140;45.486;9.226;2023-07-13T15:08:50;37.30;40.00
62154;DHT22;48140;45.486;9.226;2023-07-13T15:11:16;37.20;40.60
62154;DHT22;48140;45.486;9.226;2023-07-13T15:13:42;36.50;41.40
62154;DHT22;48140;45.486;9.226;2023-07-13T15:16:17;36.30;42.00
62154;DHT22;48140;45.486;9.226;2023-07-13T15:18:44;36.50;42.40
62154;DHT22;48140;45.486;9.226;2023-07-13T15:21:10;36.50;41.90
62154;DHT22;48140;45.486;9.226;2023-07-13T15:23:40;36.10;42.70
62154;DHT22;48140;45.486;9.226;2023-07-13T15:26:07;35.60;44.40
62154;DHT22;48140;45.486;9.226;2023-07-13T15:28:33;35.60;44.70
62154;DHT22;48140;45.486;9.226;2023-07-13T15:30:59;35.30;44.70
62154;DHT22;48140;45.486;9.226;2023-07-13T15:33:28;35.60;44.10
62154;DHT22;48140;45.486;9.226;2023-07-13T15:35:54;35.60;44.90
62154;DHT22;48140;45.486;9.226;2023-07-13T15:38:25;35.90;44.40
62154;DHT22;48140;45.486;9.226;2023-07-13T15:40:51;36.00;43.40
62154;DHT22;48140;45.486;9.226;2023-07-13T15:43:17;36.10;43.30
62154;DHT22;48140;45.486;9.226;2023-07-13T15:45:43;36.10;42.20
62154;DHT22;48140;45.486;9.226;2023-07-13T15:48:11;36.00;42.60
62154;DHT22;48140;45.486;9.226;2023-07-13T15:50:41;35.90;43.20
62154;DHT22;48140;45.486;9.226;2023-07-13T15:53:08;35.70;41.70
62154;DHT22;48140;45.486;9.226;2023-07-13T15:55:35;35.80;42.60
62154;DHT22;48140;45.486;9.226;2023-07-13T15:58:02;35.70;42.90
62154;DHT22;48140;45.486;9.226;2023-07-13T16:00:28;35.40;43.90
62154;DHT22;48140;45.486;9.226;2023-07-13T16:02:53;35.30;44.70
62154;DHT22;48140;45.486;9.226;2023-07-13T16:05:20;35.00;45.80
62154;DHT22;48140;45.486;9.226;2023-07-13T16:07:47;35.00;45.80
62154;DHT22;48140;45.486;9.226;2023-07-13T16:10:15;34.90;46.60
62154;DHT22;48140;45.486;9.226;2023-07-13T16:12:41;34.80;47.20
62154;DHT22;48140;45.486;9.226;2023-07-13T16:15:13;34.90;47.00
62154;DHT22;48140;45.486;9.226;2023-07-13T16:17:39;35.00;46.80
62154;DHT22;48140;45.486;9.226;2023-07-13T16:20:06;35.00;46.60
62154;DHT22;48140;45.486;9.226;2023-07-13T16:22:35;34.90;46.50
62154;DHT22;48140;45.486;9.226;2023-07-13T16:25:01;34.60;47.30
62154;DHT22;48140;45.486;9.226;2023-07-13T16:27:31;34.40;47.60
62154;DHT22;48140;45.486;9.226;2023-07-13T16:29:59;34.00;48.90
62154;DHT22;48140;45.486;9.226;2023-07-13T16:32:24;33.80;50.20
62154;DHT22;48140;45.486;9.226;2023-07-13T16:34:54;33.60;50.30
62154;DHT22;48140;45.486;9.226;2023-07-13T16:37:20;33.60;51.20
62154;DHT22;48140;45.486;9.226;2023-07-13T16:39:51;33.60;51.50
62154;DHT22;48140;45.486;9.226;2023-07-13T16:42:20;33.80;50.50
62154;DHT22;48140;45.486;9.226;2023-07-13T16:44:46;34.00;50.00
62154;DHT22;48140;45.486;9.226;2023-07-13T16:47:12;34.10;49.10
62154;DHT22;48140;45.486;9.226;2023-07-13T16:49:38;34.10;49.10
62154;DHT22;48140;45.486;9.226;2023-07-13T16:52:03;33.70;50.80
62154;DHT22;48140;45.486;9.226;2023-07-13T16:54:30;33.30;52.80
62154;DHT22;48140;45.486;9.226;2023-07-13T16:56:56;33.10;55.10
62154;DHT22;48140;45.486;9.226;2023-07-13T16:59:22;32.80;56.20
62154;DHT22;48140;45.486;9.226;2023-07-13T17:01:49;32.80;56.00
62154;DHT22;48140;45.486;9.226;2023-07-13T17:04:15;33.00;55.70
62154;DHT22;48140;45.486;9.226;2023-07-13T17:06:47;33.10;54.60
62154;DHT22;48140;45.486;9.226;2023-07-13T17:09:12;33.10;55.40
62154;DHT22;48140;45.486;9.226;2023-07-13T17:11:42;33.10;55.30
62154;DHT22;48140;45.486;9.226;2023-07-13T17:14:17;33.10;55.40
62154;DHT22;48140;45.486;9.226;2023-07-13T17:16:50;33.10;55.20